Time;durP1;ratioP1;P1;durP2;ratioP2;P2;SDS_P1;SDS_P2;PMS_P1;PMS_P2;Temp;Humidity;BMP_temperature;BMP_pressure;BME280_temperature;BME280_humidity;BME280_pressure;Samples;Min_cycle;Max_cycle;Signal;HPM_P1;HPM_P2
2024/01/17 00:00:36;;;;;;;5.30;2.83;;;;;;;6.35;40.84;100021.78;4958513;28;20407;-66
2024/01/17 00:03:02;;;;;;;8.40;3.92;;;;;;;6.37;40.86;100018.03;4975743;28;20105;-66
2024/01/17 00:05:27;;;;;;;5.78;3.38;;;;;;;6.37;41.21;100012.72;4974352;28;20031;-66
2024/01/17 00:07:52;;;;;;;8.27;3.63;;;;;;;6.35;41.01;100004.03;4974365;28;20030;-67
2024/01/17 00:10:18;;;;;;;7.68;3.20;;;;;;;6.37;39.85;100001.22;4974279;28;20041;-66
2024/01/17 00:12:44;;;;;;;8.32;3.50;;;;;;;6.33;41.26;99997.97;4975656;28;20066;-66
2024/01/17 00:15:10;;;;;;;10.45;3.53;;;;;;;6.30;40.19;99984.94;4973996;28;20486;-66
2024/01/17 00:17:35;;;;;;;7.43;3.83;;;;;;;6.29;41.20;99988.56;4974520;28;20039;-67
2024/01/17 00:20:01;;;;;;;6.93;2.67;;;;;;;6.23;40.04;99977.53;4973593;28;20379;-66
2024/01/17 00:22:26;;;;;;;8.05;3.42;;;;;;;6.19;40.63;99979.63;4975189;28;20391;-66
2024/01/17 00:24:52;;;;;;;4.43;2.97;;;;;;;6.17;40.86;99981.53;4957898;28;20035;-66
2024/01/17 00:27:18;;;;;;;12.23;3.95;;;;;;;6.14;40.81;99976.47;4957631;28;20042;-66
2024/01/17 00:29:44;;;;;;;6.45;2.97;;;;;;;6.09;40.53;99976.00;4975116;28;20034;-66
2024/01/17 00:32:09;;;;;;;8.15;3.80;;;;;;;6.03;40.15;99960.53;4973955;28;20034;-66
2024/01/17 00:34:35;;;;;;;5.70;3.38;;;;;;;6.02;40.69;99960.66;4957589;28;20034;-66
2024/01/17 00:37:00;;;;;;;5.43;2.95;;;;;;;6.02;40.36;99958.84;4972653;28;20034;-66
2024/01/17 00:39:26;;;;;;;6.25;4.10;;;;;;;5.97;39.77;99944.25;4957886;28;20129;-66
2024/01/17 00:41:52;;;;;;;4.65;3.10;;;;;;;5.93;39.93;99932.16;4973655;28;20043;-66
2024/01/17 00:44:19;;;;;;;6.45;2.72;;;;;;;5.86;39.79;99931.81;4973820;28;20035;-66
2024/01/17 00:46:45;;;;;;;8.38;3.60;;;;;;;5.88;41.08;99927.22;4958166;28;20494;-66
2024/01/17 00:49:11;;;;;;;10.20;3.60;;;;;;;5.82;40.33;99917.88;4971745;28;20039;-66
2024/01/17 00:51:36;;;;;;;7.38;3.35;;;;;;;5.81;40.64;99912.66;4973741;28;20035;-66
2024/01/17 00:54:01;;;;;;;10.23;3.58;;;;;;;5.81;40.07;99913.53;4974040;28;20047;-66
2024/01/17 00:56:27;;;;;;;6.43;3.17;;;;;;;5.79;40.82;99909.31;4957550;28;20039;-66
2024/01/17 00:58:52;;;;;;;8.65;3.53;;;;;;;5.73;40.55;99897.34;4975044;28;20545;-66
2024/01/17 01:01:18;;;;;;;7.50;3.95;;;;;;;5.71;41.02;99895.78;4973799;28;20553;-66
2024/01/17 01:03:45;;;;;;;5.50;3.33;;;;;;;5.70;40.34;99900.25;4973746;28;20027;-66
2024/01/17 01:06:11;;;;;;;8.82;3.92;;;;;;;5.68;40.06;99911.97;4973388;28;20134;-66
2024/01/17 01:08:36;;;;;;;8.63;3.38;;;;;;;5.64;40.26;99900.72;4974789;28;20514;-66
2024/01/17 01:11:01;;;;;;;11.45;3.35;;;;;;;5.63;40.62;99888.44;4973897;28;20050;-66
2024/01/17 01:13:27;;;;;;;7.05;3.38;;;;;;;5.63;40.41;99893.75;4973757;28;20035;-66
2024/01/17 01:15:52;;;;;;;4.20;3.13;;;;;;;5.60;40.32;99890.47;4957662;28;20053;-66
2024/01/17 01:18:17;;;;;;;7.15;3.35;;;;;;;5.60;41.22;99893.13;4973474;28;20037;-66
2024/01/17 01:20:43;;;;;;;6.88;3.42;;;;;;;5.59;39.62;99886.97;4974949;28;20035;-66
2024/01/17 01:23:08;;;;;;;7.95;3.72;;;;;;;5.57;40.06;99888.06;4974310;28;20579;-66
2024/01/17 01:25:34;;;;;;;7.05;3.33;;;;;;;5.55;40.62;99884.69;4974857;28;20031;-66
2024/01/17 01:27:59;;;;;;;7.53;2.90;;;;;;;5.53;41.01;99881.28;4975334;28;20070;-66
2024/01/17 01:30:25;;;;;;;5.13;3.15;;;;;;;5.52;40.54;99891.09;4973346;28;20035;-67
2024/01/17 01:32:50;;;;;;;10.15;3.65;;;;;;;5.48;40.41;99876.34;4973658;28;20035;-66
2024/01/17 01:35:15;;;;;;;6.75;3.65;;;;;;;5.48;40.08;99872.84;4974575;28;20053;-66
2024/01/17 01:37:41;;;;;;;5.38;3.00;;;;;;;5.48;41.54;99863.06;4974027;28;20058;-66
2024/01/17 01:40:09;;;;;;;9.07;3.45;;;;;;;5.48;39.76;99872.84;4974560;28;20034;-66
2024/01/17 01:42:35;;;;;;;5.88;2.78;;;;;;;5.47;39.93;99860.53;4972986;28;20070;-66
2024/01/17 01:45:01;;;;;;;5.95;2.85;;;;;;;5.42;41.31;99852.06;4957313;28;20038;-66
2024/01/17 01:47:27;;;;;;;9.43;3.35;;;;;;;5.43;41.31;99848.47;4973199;28;20035;-66
2024/01/17 01:49:53;;;;;;;13.40;4.72;;;;;;;5.40;40.51;99843.38;4973575;28;20042;-66
2024/01/17 01:52:20;;;;;;;8.45;3.58;;;;;;;5.37;41.70;99843.63;4974138;28;20034;-67
2024/01/17 01:54:46;;;;;;;5.78;3.13;;;;;;;5.32;41.18;99835.19;4975606;28;20038;-66
2024/01/17 01:57:11;;;;;;;10.32;3.92;;;;;;;5.33;40.77;99836.88;4974941;28;20042;-66
2024/01/17 01:59:37;;;;;;;6.50;3.22;;;;;;;5.31;40.91;99829.03;4977940;28;20038;-66
2024/01/17 02:02:04;;;;;;;5.25;3.17;;;;;;;5.28;40.65;99824.81;4978441;28;20039;-66
2024/01/17 02:04:32;;;;;;;10.37;3.20;;;;;;;5.23;41.09;99812.88;4978598;28;20031;-67
2024/01/17 02:06:58;;;;;;;6.32;3.25;;;;;;;5.20;40.61;99813.94;4976812;28;20034;-66
2024/01/17 02:09:23;;;;;;;9.98;3.70;;;;;;;5.19;40.98;99822.88;4959099;28;20039;-66
2024/01/17 02:11:50;;;;;;;4.38;2.90;;;;;;;5.17;41.24;99824.81;4976657;28;20088;-66
2024/01/17 02:14:17;;;;;;;8.13;2.80;;;;;;;5.11;41.09;99812.00;4976417;28;20039;-66
2024/01/17 02:16:43;;;;;;;4.90;2.75;;;;;;;5.11;41.00;99812.00;4976276;28;20030;-66
2024/01/17 02:19:10;;;;;;;4.85;3.28;;;;;;;5.05;41.08;99801.88;4960141;28;20045;-65
2024/01/17 02:21:35;;;;;;;4.25;2.80;;;;;;;5.03;41.06;99802.94;4975951;28;20043;-66
2024/01/17 02:24:17;;;;;;;8.25;3.53;;;;;;;5.01;41.79;99811.03;4976100;28;20038;-66
2024/01/17 02:26:43;;;;;;;8.52;3.67;;;;;;;4.98;40.42;99811.28;4975789;28;20082;-66
2024/01/17 02:29:09;;;;;;;7.82;3.33;;;;;;;4.91;40.57;99798.63;4975987;28;20113;-66
2024/01/17 02:31:34;;;;;;;14.95;3.33;;;;;;;4.88;41.69;99786.44;4959671;28;20479;-66
2024/01/17 02:34:00;;;;;;;8.50;3.58;;;;;;;4.86;40.84;99780.38;4959617;28;20043;-66
2024/01/17 02:36:25;;;;;;;7.50;3.97;;;;;;;4.87;39.91;99782.09;4959592;28;20046;-66
2024/01/17 02:38:50;;;;;;;5.47;3.25;;;;;;;4.87;40.95;99779.44;4975733;28;20379;-66
2024/01/17 02:41:16;;;;;;;5.72;3.70;;;;;;;4.86;40.02;99774.25;4975431;28;20084;-66
2024/01/17 02:43:41;;;;;;;8.80;4.90;;;;;;;4.85;41.60;99764.59;4975166;28;20113;-66
2024/01/17 02:46:07;;;;;;;9.05;4.22;;;;;;;4.88;41.89;99767.88;4959330;28;20513;-66
2024/01/17 02:48:33;;;;;;;8.90;5.45;;;;;;;4.86;42.09;99759.16;4959476;28;20062;-66
2024/01/17 02:50:58;;;;;;;7.60;3.17;;;;;;;4.88;41.66;99773.19;4975496;28;20093;-66
2024/01/17 02:53:24;;;;;;;5.90;4.53;;;;;;;4.87;41.31;99766.16;4976502;28;20458;-66
2024/01/17 02:55:49;;;;;;;9.30;3.72;;;;;;;4.88;40.10;99767.88;4975158;28;20185;-66
2024/01/17 02:58:15;;;;;;;12.00;4.45;;;;;;;4.89;40.54;99769.53;4977222;28;20047;-66
2024/01/17 03:00:42;;;;;;;7.35;3.63;;;;;;;4.87;41.89;99760.88;4976969;28;20046;-65
2024/01/17 03:03:09;;;;;;;9.18;3.60;;;;;;;4.88;41.40;99754.59;4969876;28;20054;-66
2024/01/17 03:05:37;;;;;;;9.18;4.03;;;;;;;4.87;41.52;99750.25;4979866;28;20122;-66
2024/01/17 03:08:03;;;;;;;10.02;4.57;;;;;;;4.85;40.64;99738.94;4975578;28;20058;-66
2024/01/17 03:10:28;;;;;;;5.27;2.93;;;;;;;4.86;40.58;99737.13;4975618;28;20039;-66
2024/01/17 03:12:54;;;;;;;5.45;3.38;;;;;;;4.86;41.81;99734.47;4976303;28;20046;-66
2024/01/17 03:15:19;;;;;;;12.00;3.80;;;;;;;4.83;40.86;99722.25;4976402;28;20453;-66
2024/01/17 03:17:44;;;;;;;6.28;3.60;;;;;;;4.86;40.43;99726.50;4975119;28;20077;-66
2024/01/17 03:20:13;;;;;;;7.32;4.20;;;;;;;4.79;41.60;99704.91;4975206;28;20058;-66
2024/01/17 03:22:39;;;;;;;9.10;3.58;;;;;;;4.83;40.61;99695.75;4974940;28;20098;-66
2024/01/17 03:25:05;;;;;;;8.15;3.60;;;;;;;4.83;41.17;99695.75;4958789;28;20054;-66
2024/01/17 03:27:30;;;;;;;10.63;4.47;;;;;;;4.80;40.99;99677.44;4975463;28;20055;-66
2024/01/17 03:29:55;;;;;;;8.00;4.05;;;;;;;4.75;40.77;99668.97;4974591;28;20035;-66
2024/01/17 03:32:21;;;;;;;8.80;4.00;;;;;;;4.77;41.58;99679.47;4974790;28;20031;-66
2024/01/17 03:34:46;;;;;;;11.50;3.58;;;;;;;4.76;40.77;99668.03;4974880;28;20045;-66
2024/01/17 03:37:12;;;;;;;10.52;4.40;;;;;;;4.71;41.24;99664.91;4974601;28;20118;-66
2024/01/17 03:39:41;;;;;;;11.30;4.40;;;;;;;4.71;41.38;99659.59;4974910;28;20066;-66
2024/01/17 03:42:07;;;;;;;7.88;3.28;;;;;;;4.71;40.60;99649.00;4958596;28;20035;-66
2024/01/17 03:44:32;;;;;;;7.07;3.53;;;;;;;4.69;40.85;99642.94;4958618;28;20045;-65
2024/01/17 03:46:57;;;;;;;5.82;3.90;;;;;;;4.67;40.27;99636.91;4974818;28;20039;-66
2024/01/17 03:49:23;;;;;;;8.20;3.90;;;;;;;4.66;41.32;99632.59;4975757;28;20042;-66
2024/01/17 03:51:48;;;;;;;9.80;4.07;;;;;;;4.69;41.25;99619.06;4974556;28;20034;-66
2024/01/17 03:54:14;;;;;;;8.60;4.03;;;;;;;4.69;41.70;99616.41;4975599;28;20050;-65
2024/01/17 03:56:39;;;;;;;12.10;4.38;;;;;;;4.68;41.44;99606.78;4958469;28;20049;-66
2024/01/17 03:59:05;;;;;;;11.68;4.80;;;;;;;4.69;40.63;99595.19;4976478;28;20038;-66
2024/01/17 04:01:31;;;;;;;9.10;3.40;;;;;;;4.68;41.73;99585.56;4975418;28;20047;-66
2024/01/17 04:03:57;;;;;;;9.38;5.00;;;;;;;4.67;40.66;99578.59;4975512;28;20067;-66
2024/01/17 04:06:22;;;;;;;5.60;3.65;;;;;;;4.69;40.27;99568.69;4974032;28;20034;-66
2024/01/17 04:08:48;;;;;;;7.30;3.72;;;;;;;4.69;40.77;99574.00;4974114;28;20508;-66
2024/01/17 04:11:13;;;;;;;7.93;4.60;;;;;;;4.65;40.17;99551.34;4958030;28;20031;-66
2024/01/17 04:13:41;;;;;;;9.10;4.38;;;;;;;4.66;41.23;99551.22;4974421;28;20037;-66
2024/01/17 04:16:07;;;;;;;4.88;3.55;;;;;;;4.64;40.56;99536.41;4957812;28;20035;-66
2024/01/17 04:18:32;;;;;;;10.27;4.07;;;;;;;4.64;40.56;99531.09;4973918;28;20042;-66
2024/01/17 04:20:58;;;;;;;7.07;3.92;;;;;;;4.63;41.53;99534.72;4973801;28;20050;-66
2024/01/17 04:23:23;;;;;;;6.23;3.17;;;;;;;4.63;40.79;99529.44;4975225;28;20031;-66
2024/01/17 04:25:49;;;;;;;7.85;3.40;;;;;;;4.60;41.79;99519.91;4975181;28;20038;-66
2024/01/17 04:28:17;;;;;;;5.93;3.63;;;;;;;4.62;42.19;99519.78;4958452;28;20078;-67
2024/01/17 04:30:44;;;;;;;8.27;3.53;;;;;;;4.61;40.05;99515.44;4974567;28;20031;-68
2024/01/17 04:33:09;;;;;;;11.88;4.65;;;;;;;4.61;40.21;99504.81;4974495;28;20058;-67
2024/01/17 04:35:35;;;;;;;10.53;3.67;;;;;;;4.59;41.25;99494.34;4974296;28;20518;-68
2024/01/17 04:38:00;;;;;;;10.50;4.72;;;;;;;4.58;40.26;99489.16;4958355;28;20425;-67
2024/01/17 04:40:26;;;;;;;10.70;4.25;;;;;;;4.56;40.88;99488.44;4974480;28;20130;-68
2024/01/17 04:42:51;;;;;;;10.68;3.47;;;;;;;4.53;40.94;99476.28;4974315;28;20410;-68
2024/01/17 04:45:17;;;;;;;12.67;4.57;;;;;;;4.53;40.80;99472.78;4958176;28;20039;-68
2024/01/17 04:47:43;;;;;;;10.10;4.32;;;;;;;4.51;40.59;99472.06;4975726;28;20034;-67
2024/01/17 04:50:10;;;;;;;12.77;4.10;;;;;;;4.47;40.24;99467.97;4957898;28;20038;-67
2024/01/17 04:52:36;;;;;;;9.43;3.97;;;;;;;4.46;41.50;99459.22;4973974;28;20038;-68
2024/01/17 04:55:01;;;;;;;7.57;3.90;;;;;;;4.43;41.44;99458.59;4974028;28;20406;-68
2024/01/17 04:57:26;;;;;;;7.78;3.40;;;;;;;4.43;41.48;99466.56;4975137;28;20054;-67
2024/01/17 04:59:52;;;;;;;7.43;4.05;;;;;;;4.39;41.81;99451.84;4975109;28;20039;-67
2024/01/17 05:02:17;;;;;;;8.63;3.90;;;;;;;4.41;42.05;99449.94;4975005;28;20038;-67
2024/01/17 05:04:49;;;;;;;9.77;4.30;;;;;;;4.39;41.34;99446.56;4975252;28;20039;-67
2024/01/17 05:07:15;;;;;;;10.23;4.00;;;;;;;4.38;41.22;99439.59;4974574;28;20402;-67
2024/01/17 05:09:40;;;;;;;11.40;5.03;;;;;;;4.38;40.67;99444.91;4967636;28;20106;-67
2024/01/17 05:12:06;;;;;;;9.50;4.30;;;;;;;4.37;40.51;99424.66;4971979;28;20085;-68
2024/01/17 05:14:31;;;;;;;12.77;4.10;;;;;;;4.37;41.79;99416.69;4973774;28;20046;-65
2024/01/17 05:16:56;;;;;;;9.53;4.30;;;;;;;4.35;42.13;99413.34;4974985;28;20027;-67
2024/01/17 05:19:22;;;;;;;12.07;4.35;;;;;;;4.33;40.10;99409.94;4972671;28;20027;-67
2024/01/17 05:21:47;;;;;;;9.57;3.83;;;;;;;4.34;40.68;99411.63;4973277;28;20506;-67
2024/01/17 05:24:13;;;;;;;10.35;4.10;;;;;;;4.31;40.83;99406.59;4974048;28;20019;-67
2024/01/17 05:26:38;;;;;;;15.20;6.18;;;;;;;4.30;41.23;99383.72;4957682;28;20050;-67
2024/01/17 05:29:06;;;;;;;9.10;4.05;;;;;;;4.32;42.02;99398.53;4973343;28;20027;-67
2024/01/17 05:31:31;;;;;;;8.57;4.07;;;;;;;4.33;40.66;99391.38;4973993;28;20482;-67
2024/01/17 05:33:57;;;;;;;8.20;3.60;;;;;;;4.32;40.21;99387.06;4974392;28;20033;-67
2024/01/17 05:36:22;;;;;;;15.40;5.10;;;;;;;4.30;40.74;99378.41;4979125;28;20022;-68
2024/01/17 05:38:47;;;;;;;11.87;3.90;;;;;;;4.33;40.14;99378.13;4978024;28;20405;-68
2024/01/17 05:41:13;;;;;;;11.60;4.73;;;;;;;4.36;41.94;99367.28;4977394;28;20445;-67
2024/01/17 05:43:39;;;;;;;18.20;4.47;;;;;;;4.39;42.07;99369.69;4961212;28;20022;-67
2024/01/17 05:46:04;;;;;;;14.47;5.27;;;;;;;4.42;41.23;99375.59;4977010;28;20054;-67
2024/01/17 05:48:29;;;;;;;10.73;5.13;;;;;;;4.43;41.38;99366.69;4978419;28;20424;-66
2024/01/17 05:50:55;;;;;;;11.50;5.18;;;;;;;4.45;42.18;99355.94;4960741;28;20026;-66
2024/01/17 05:53:20;;;;;;;8.47;3.90;;;;;;;4.49;40.60;99354.72;4977193;28;20027;-66
2024/01/17 05:55:46;;;;;;;11.77;4.43;;;;;;;4.50;42.10;99353.75;4960481;28;20023;-66
2024/01/17 05:58:11;;;;;;;12.07;4.03;;;;;;;4.50;40.95;99359.03;4977738;28;20027;-65
2024/01/17 06:00:37;;;;;;;6.20;4.23;;;;;;;4.53;40.55;99358.78;4976553;28;20031;-66
2024/01/17 06:03:04;;;;;;;11.05;4.60;;;;;;;4.56;41.92;99361.19;4960568;28;20038;-65
2024/01/17 06:05:30;;;;;;;12.52;4.88;;;;;;;4.55;40.68;99346.28;4976145;28;20034;-66
2024/01/17 06:07:55;;;;;;;10.70;4.72;;;;;;;4.55;41.41;99347.09;4977658;28;20026;-66
2024/01/17 06:10:21;;;;;;;11.37;4.70;;;;;;;4.54;41.38;99333.97;4976418;28;20018;-65
2024/01/17 06:12:46;;;;;;;17.27;5.13;;;;;;;4.57;41.97;99331.06;4964970;28;20038;-66
2024/01/17 06:15:12;;;;;;;9.27;4.05;;;;;;;4.60;42.16;99333.47;4957284;28;20482;-66
2024/01/17 06:17:37;;;;;;;11.90;4.53;;;;;;;4.59;40.93;99332.63;4957086;28;20027;-66
2024/01/17 06:20:03;;;;;;;9.88;4.18;;;;;;;4.62;40.75;99326.22;4941004;28;20029;-66
2024/01/17 06:22:29;;;;;;;9.57;3.85;;;;;;;4.59;40.55;99314.06;4940995;28;20407;-66
2024/01/17 06:24:54;;;;;;;11.10;4.72;;;;;;;4.61;42.15;99320.06;4957152;28;20063;-66
2024/01/17 06:27:20;;;;;;;13.02;4.03;;;;;;;4.63;41.05;99304.84;4958314;28;20042;-66
2024/01/17 06:29:46;;;;;;;9.23;4.20;;;;;;;4.61;41.93;99304.16;4957802;28;20031;-65
2024/01/17 06:32:12;;;;;;;10.55;4.20;;;;;;;4.64;41.88;99313.66;4955966;28;20055;-66
2024/01/17 06:34:37;;;;;;;8.48;4.35;;;;;;;4.61;42.12;99296.22;4957222;28;20487;-66
2024/01/17 06:37:03;;;;;;;11.03;3.87;;;;;;;4.66;41.93;99306.44;4956776;28;20031;-66
2024/01/17 06:39:30;;;;;;;15.75;3.90;;;;;;;4.66;40.35;99301.94;4957040;28;20038;-66
2024/01/17 06:41:55;;;;;;;8.98;3.72;;;;;;;4.70;40.88;99302.53;4956598;28;20039;-67
2024/01/17 06:44:20;;;;;;;7.70;4.10;;;;;;;4.71;40.80;99293.63;4957147;28;20031;-65
2024/01/17 06:46:46;;;;;;;7.03;3.63;;;;;;;4.70;41.52;99281.31;4956476;28;20031;-66
2024/01/17 06:49:11;;;;;;;8.17;4.00;;;;;;;4.70;41.54;99274.22;4958094;28;20043;-65
2024/01/17 06:51:38;;;;;;;9.82;4.32;;;;;;;4.72;42.07;99269.63;4955866;28;20031;-66
2024/01/17 06:54:03;;;;;;;13.35;4.13;;;;;;;4.74;42.10;99272.16;4957882;28;20027;-67
2024/01/17 06:56:29;;;;;;;6.45;3.25;;;;;;;4.76;42.29;99256.94;4957732;28;20063;-66
2024/01/17 06:58:54;;;;;;;16.00;4.60;;;;;;;4.74;42.03;99253.59;4940715;29;20055;-66
2024/01/17 07:01:20;;;;;;;7.03;3.40;;;;;;;4.78;41.34;99257.66;4956677;28;20043;-67
2024/01/17 07:03:45;;;;;;;12.15;4.35;;;;;;;4.77;41.75;99252.50;4940345;29;20051;-67
2024/01/17 07:06:11;;;;;;;7.82;3.70;;;;;;;4.79;40.96;99237.28;4957708;28;20027;-67
2024/01/17 07:08:36;;;;;;;9.38;3.97;;;;;;;4.81;42.37;99241.47;4956708;28;20122;-66
2024/01/17 07:11:01;;;;;;;14.23;3.85;;;;;;;4.75;41.65;99225.25;4955867;28;20039;-66
2024/01/17 07:13:27;;;;;;;14.95;3.95;;;;;;;4.79;41.84;99232.81;4957481;28;20094;-66
2024/01/17 07:15:53;;;;;;;10.45;3.83;;;;;;;4.79;41.81;99227.50;4956667;28;20039;-67
2024/01/17 07:18:18;;;;;;;6.40;3.60;;;;;;;4.78;42.28;99225.81;4955634;28;20050;-67
2024/01/17 07:20:43;;;;;;;9.50;3.90;;;;;;;4.81;40.80;99230.88;4955775;28;20032;-66
2024/01/17 07:23:10;;;;;;;10.68;3.85;;;;;;;4.84;42.31;99225.28;4956790;28;20106;-66
2024/01/17 07:25:36;;;;;;;12.23;4.33;;;;;;;4.87;41.41;99222.38;4955593;28;20077;-66
2024/01/17 07:28:02;;;;;;;9.35;4.15;;;;;;;4.87;42.41;99209.13;4955682;28;20039;-66
2024/01/17 07:30:28;;;;;;;11.95;4.50;;;;;;;4.89;41.86;99201.84;4957063;28;20031;-66
2024/01/17 07:32:54;;;;;;;13.48;4.55;;;;;;;4.93;40.68;99207.75;4955998;28;20473;-66
2024/01/17 07:35:19;;;;;;;7.37;3.90;;;;;;;4.95;41.06;99198.69;4956837;28;20027;-67
2024/01/17 07:37:44;;;;;;;7.75;3.72;;;;;;;4.95;42.45;99196.03;4939495;28;20454;-66
2024/01/17 07:40:10;;;;;;;11.05;3.92;;;;;;;4.97;41.59;99180.81;4956649;28;20058;-66
2024/01/17 07:42:35;;;;;;;13.60;4.20;;;;;;;4.96;41.08;99175.66;4955364;28;20506;-67
2024/01/17 07:45:02;;;;;;;5.82;3.65;;;;;;;5.00;40.76;99177.88;4955484;28;20402;-67
2024/01/17 07:47:27;;;;;;;10.95;4.20;;;;;;;5.00;41.72;99172.59;4955538;28;20027;-67
2024/01/17 07:49:55;;;;;;;11.32;4.82;;;;;;;4.98;41.50;99155.97;4956373;28;20035;-66
2024/01/17 07:52:20;;;;;;;9.53;3.77;;;;;;;5.00;42.14;99151.34;4957216;28;20164;-66
2024/01/17 07:54:46;;;;;;;6.70;3.97;;;;;;;5.02;40.98;99143.28;4955719;28;20027;-66
2024/01/17 07:57:12;;;;;;;7.72;4.82;;;;;;;4.98;40.85;99129.44;4954905;28;20118;-67
2024/01/17 07:59:37;;;;;;;11.55;4.47;;;;;;;4.99;42.47;99125.81;4955009;28;20023;-66
2024/01/17 08:02:03;;;;;;;9.90;3.67;;;;;;;5.04;42.32;99130.72;4955263;28;20094;-66
2024/01/17 08:04:28;;;;;;;17.08;4.03;;;;;;;5.04;40.89;99118.28;4956308;28;20031;-66
2024/01/17 08:06:53;;;;;;;9.38;4.35;;;;;;;5.10;41.87;99115.09;4955289;28;20045;-66
2024/01/17 08:09:26;;;;;;;10.95;4.65;;;;;;;5.12;41.32;99112.28;4955456;28;20062;-66
2024/01/17 08:11:55;;;;;;;6.80;3.67;;;;;;;5.13;41.37;99120.13;4956785;28;20023;-66
2024/01/17 08:14:21;;;;;;;11.00;4.75;;;;;;;5.18;42.85;99112.59;4939211;29;20042;-67
2024/01/17 08:16:47;;;;;;;12.07;4.45;;;;;;;5.21;41.51;99098.19;4955114;28;20023;-66
2024/01/17 08:19:14;;;;;;;10.02;4.43;;;;;;;5.23;41.52;99089.13;4956226;28;20046;-66
2024/01/17 08:21:47;;;;;;;10.25;4.60;;;;;;;5.29;41.56;99099.19;4939083;29;20031;-66
2024/01/17 08:24:13;;;;;;;9.07;4.45;;;;;;;5.33;41.34;99094.44;4954926;28;20027;-66
2024/01/17 08:26:39;;;;;;;8.68;4.30;;;;;;;5.38;42.19;99091.38;4954906;28;20122;-66
2024/01/17 08:29:05;;;;;;;9.48;3.90;;;;;;;5.40;41.17;99086.75;4955812;28;20061;-66
2024/01/17 08:31:31;;;;;;;9.13;4.43;;;;;;;5.43;41.16;99086.47;4956689;28;20046;-66
2024/01/17 08:33:56;;;;;;;9.73;3.63;;;;;;;5.47;41.42;99086.03;4938707;29;20027;-66
2024/01/17 08:36:23;;;;;;;14.57;4.40;;;;;;;5.50;41.16;99084.94;4939230;29;20042;-66
2024/01/17 08:38:48;;;;;;;9.50;4.13;;;;;;;5.52;41.00;99075.03;4955005;28;20038;-66
2024/01/17 08:41:18;;;;;;;11.90;4.22;;;;;;;5.56;42.08;99063.13;4954597;28;20035;-66
2024/01/17 08:43:43;;;;;;;8.18;3.58;;;;;;;5.57;41.48;99059.50;4954317;28;20035;-66
2024/01/17 08:46:11;;;;;;;9.27;4.57;;;;;;;5.61;41.93;99058.25;4954242;28;20042;-66
2024/01/17 08:48:37;;;;;;;10.77;4.32;;;;;;;5.64;42.48;99055.31;4954395;28;20042;-66
2024/01/17 08:51:03;;;;;;;10.75;4.20;;;;;;;5.65;41.85;99054.31;4953396;28;20035;-66
2024/01/17 08:53:31;;;;;;;11.85;4.22;;;;;;;5.64;41.21;99042.84;4954640;28;20035;-66
2024/01/17 08:55:57;;;;;;;10.45;4.93;;;;;;;5.70;41.97;99044.09;4955761;28;20046;-66
2024/01/17 08:58:22;;;;;;;8.57;3.88;;;;;;;5.74;41.01;99030.41;4938473;29;20032;-67
2024/01/17 09:00:47;;;;;;;10.55;4.18;;;;;;;5.77;42.64;99014.19;4953624;28;20125;-66
2024/01/17 09:03:13;;;;;;;12.95;5.07;;;;;;;5.82;41.95;99017.25;4954281;28;20506;-66
2024/01/17 09:05:39;;;;;;;8.40;3.85;;;;;;;5.86;42.33;99018.66;4955766;28;20100;-66
2024/01/17 09:08:05;;;;;;;10.75;4.20;;;;;;;5.90;42.91;99007.72;4955575;28;20062;-66
2024/01/17 09:10:30;;;;;;;10.48;4.43;;;;;;;5.95;41.88;99008.97;4958817;28;20039;-66
2024/01/17 09:12:55;;;;;;;12.10;5.25;;;;;;;6.00;42.08;99004.09;4959570;28;20055;-67
2024/01/17 09:15:21;;;;;;;9.98;4.25;;;;;;;6.03;42.53;98993.13;4959755;28;20037;-67
2024/01/17 09:17:46;;;;;;;13.90;4.20;;;;;;;6.04;41.37;98976.22;4959686;28;20102;-68
2024/01/17 09:20:14;;;;;;;11.30;4.90;;;;;;;6.06;42.09;98978.75;4942009;29;20094;-67
2024/01/17 09:22:40;;;;;;;17.45;4.47;;;;;;;6.11;41.80;98984.47;4960546;28;20495;-67
2024/01/17 09:25:06;;;;;;;9.70;4.90;;;;;;;6.13;42.64;98983.31;4958795;28;20039;-67
2024/01/17 09:27:31;;;;;;;9.05;3.83;;;;;;;6.15;41.16;98976.03;4958986;28;20047;-67
2024/01/17 09:29:56;;;;;;;8.43;4.32;;;;;;;6.18;41.14;98980.22;4960249;28;20035;-67
2024/01/17 09:32:22;;;;;;;12.13;5.15;;;;;;;6.18;42.98;98970.44;4942735;29;20114;-67
2024/01/17 09:34:47;;;;;;;12.95;4.57;;;;;;;6.21;41.31;98969.28;4958753;28;20090;-67
2024/01/17 09:37:15;;;;;;;13.38;4.38;;;;;;;6.21;42.52;98970.13;4959742;28;20529;-67
2024/01/17 09:39:40;;;;;;;12.45;5.55;;;;;;;6.21;42.40;98964.81;4958736;28;20430;-67
2024/01/17 09:42:06;;;;;;;10.65;5.45;;;;;;;6.22;41.03;98968.31;4958543;28;20063;-67
2024/01/17 09:44:32;;;;;;;14.38;4.72;;;;;;;6.18;41.86;98959.78;4958700;28;20450;-67
2024/01/17 09:47:01;;;;;;;10.13;4.57;;;;;;;6.20;41.82;98968.44;4958690;28;20035;-67
2024/01/17 09:49:28;;;;;;;9.32;4.30;;;;;;;6.22;42.01;98961.19;4958919;28;20038;-67
2024/01/17 09:51:54;;;;;;;8.45;3.95;;;;;;;6.23;41.92;98957.53;4943442;29;20074;-67
2024/01/17 09:54:22;;;;;;;11.05;4.55;;;;;;;6.25;41.90;98960.88;4943293;29;20521;-68
2024/01/17 09:56:50;;;;;;;9.43;4.43;;;;;;;6.28;42.56;98960.56;4959133;28;20035;-67
2024/01/17 09:59:21;;;;;;;16.25;4.88;;;;;;;6.33;42.02;98961.00;4942848;29;20035;-67
2024/01/17 10:01:47;;;;;;;9.45;4.70;;;;;;;6.35;42.01;98956.34;4942852;29;20054;-68
2024/01/17 10:04:15;;;;;;;12.43;4.82;;;;;;;6.39;42.11;98954.25;4958072;28;20499;-67
2024/01/17 10:06:44;;;;;;;10.07;4.80;;;;;;;6.39;42.37;98952.38;4926669;29;20048;-68
2024/01/17 10:09:09;;;;;;;11.93;5.00;;;;;;;6.44;41.49;98946.66;4958249;28;20113;-67
2024/01/17 10:11:35;;;;;;;9.10;4.22;;;;;;;6.45;41.63;98938.50;4957941;28;20071;-67
2024/01/17 10:14:01;;;;;;;13.15;5.18;;;;;;;6.49;42.86;98949.69;4958092;28;20050;-67
2024/01/17 10:16:28;;;;;;;12.98;5.20;;;;;;;6.51;42.32;98953.03;4957729;28;20050;-67
2024/01/17 10:18:53;;;;;;;12.90;4.78;;;;;;;6.55;41.53;98940.28;4958274;28;20046;-67
2024/01/17 10:21:19;;;;;;;11.45;5.57;;;;;;;6.59;42.25;98939.00;4958602;28;20035;-67
2024/01/17 10:23:45;;;;;;;10.02;4.60;;;;;;;6.60;42.47;98938.00;4956408;28;20491;-67
2024/01/17 10:26:10;;;;;;;10.80;4.72;;;;;;;6.62;41.56;98930.69;4968345;28;20050;-67
2024/01/17 10:28:36;;;;;;;12.55;5.25;;;;;;;6.66;41.50;98929.41;4960794;28;20042;-66
2024/01/17 10:31:07;;;;;;;16.38;5.47;;;;;;;6.71;41.67;98940.44;4976385;28;20438;-67
2024/01/17 10:33:34;;;;;;;10.90;5.20;;;;;;;6.72;41.82;98934.13;4976647;28;20039;-66
2024/01/17 10:35:59;;;;;;;13.13;4.30;;;;;;;6.74;41.51;98935.66;4978172;28;20031;-67
2024/01/17 10:38:33;;;;;;;9.93;5.28;;;;;;;6.78;41.36;98925.56;4974064;28;20041;-66
2024/01/17 10:41:04;;;;;;;13.82;5.80;;;;;;;6.82;41.37;98926.91;4977996;28;20102;-67
2024/01/17 10:43:29;;;;;;;9.02;4.63;;;;;;;6.81;42.64;98919.94;4977986;28;20528;-67
2024/01/17 10:45:55;;;;;;;11.80;5.90;;;;;;;6.81;41.72;98911.94;4977550;28;20043;-67
2024/01/17 10:48:25;;;;;;;15.07;4.95;;;;;;;6.87;42.26;98913.97;4960345;28;20034;-66
2024/01/17 10:51:01;;;;;;;12.25;5.45;;;;;;;6.88;42.58;98897.03;4977576;28;20105;-67
2024/01/17 10:53:30;;;;;;;7.43;4.25;;;;;;;6.91;41.59;98900.22;4976334;28;20544;-67
2024/01/17 10:56:01;;;;;;;11.20;5.00;;;;;;;6.94;42.18;98893.75;4960951;28;20463;-67
2024/01/17 10:58:27;;;;;;;12.77;4.80;;;;;;;6.94;41.68;98893.75;4976642;28;20118;-68
2024/01/17 11:00:53;;;;;;;13.38;4.50;;;;;;;6.97;42.66;98888.13;4976434;28;20031;-67
2024/01/17 11:03:19;;;;;;;11.48;5.85;;;;;;;7.00;41.71;98885.16;4960164;28;20109;-67
2024/01/17 11:05:48;;;;;;;12.43;5.15;;;;;;;7.01;42.28;98885.00;4977654;28;20034;-66
2024/01/17 11:08:15;;;;;;;15.45;5.35;;;;;;;7.01;41.91;98881.50;4976169;28;20038;-67
2024/01/17 11:10:43;;;;;;;10.98;4.72;;;;;;;7.03;41.95;98880.34;4977740;28;20031;-67
2024/01/17 11:13:10;;;;;;;14.80;5.40;;;;;;;7.04;41.91;98879.38;4976270;28;20035;-66
2024/01/17 11:15:37;;;;;;;11.52;4.72;;;;;;;7.05;41.40;98885.53;4959662;28;20042;-64
2024/01/17 11:18:04;;;;;;;8.80;5.72;;;;;;;7.01;42.24;98877.00;4975293;28;20094;-64
2024/01/17 11:20:31;;;;;;;12.35;4.60;;;;;;;6.99;41.68;98881.66;4976485;28;20038;-65
2024/01/17 11:22:57;;;;;;;7.88;4.55;;;;;;;6.96;41.72;98875.81;4975201;28;20047;-65
2024/01/17 11:25:28;;;;;;;14.05;5.28;;;;;;;6.91;43.18;98872.78;4976016;28;20410;-64
2024/01/17 11:28:12;;;;;;;14.30;6.00;;;;;;;6.93;42.97;98873.44;4974999;28;20059;-65
2024/01/17 11:30:48;;;;;;;11.57;4.85;;;;;;;6.89;42.38;98872.94;4974199;28;20069;-67
2024/01/17 11:33:13;;;;;;;12.55;5.80;;;;;;;6.84;43.05;98864.56;4974400;28;20039;-67